sensor_id;sensor_type;location;lat;lon;timestamp;temperature;humidity
8422;DHT22;4248;48.196;10.924;2023-07-13T00:01:39;19.90;63.50
8422;DHT22;4248;48.196;10.924;2023-07-13T00:04:05;19.90;63.50
8422;DHT22;4248;48.196;10.924;2023-07-13T00:06:31;19.90;63.50
8422;DHT22;4248;48.196;10.924;2023-07-13T00:08:58;19.90;63.40
8422;DHT22;4248;48.196;10.924;2023-07-13T00:11:24;19.90;63.50
8422;DHT22;4248;48.196;10.924;2023-07-13T00:13:50;19.90;63.50
8422;DHT22;4248;48.196;10.924;2023-07-13T00:16:15;19.90;63.30
8422;DHT22;4248;48.196;10.924;2023-07-13T00:18:41;19.90;63.50
8422;DHT22;4248;48.196;10.924;2023-07-13T00:21:07;19.90;63.50
8422;DHT22;4248;48.196;10.924;2023-07-13T00:23:34;19.90;63.50
8422;DHT22;4248;48.196;10.924;2023-07-13T00:26:04;20.00;63.40
8422;DHT22;4248;48.196;10.924;2023-07-13T00:28:32;19.90;63.30
8422;DHT22;4248;48.196;10.924;2023-07-13T00:30:58;19.90;63.50
8422;DHT22;4248;48.196;10.924;2023-07-13T00:33:24;20.00;63.50
8422;DHT22;4248;48.196;10.924;2023-07-13T00:35:50;20.00;63.80
8422;DHT22;4248;48.196;10.924;2023-07-13T00:38:16;19.90;63.80
8422;DHT22;4248;48.196;10.924;2023-07-13T00:40:41;19.80;63.80
8422;DHT22;4248;48.196;10.924;2023-07-13T00:43:16;19.90;63.90
8422;DHT22;4248;48.196;10.924;2023-07-13T00:48:12;19.90;63.50
8422;DHT22;4248;48.196;10.924;2023-07-13T00:50:40;19.90;63.50
8422;DHT22;4248;48.196;10.924;2023-07-13T00:53:07;19.90;64.00
8422;DHT22;4248;48.196;10.924;2023-07-13T00:55:34;20.00;63.70
8422;DHT22;4248;48.196;10.924;2023-07-13T00:57:59;19.90;63.80
8422;DHT22;4248;48.196;10.924;2023-07-13T01:00:26;19.90;63.90
8422;DHT22;4248;48.196;10.924;2023-07-13T01:02:52;19.90;63.90
8422;DHT22;4248;48.196;10.924;2023-07-13T01:05:21;19.90;63.90
8422;DHT22;4248;48.196;10.924;2023-07-13T01:07:49;20.00;64.10
8422;DHT22;4248;48.196;10.924;2023-07-13T01:10:16;19.90;64.20
8422;DHT22;4248;48.196;10.924;2023-07-13T01:12:42;19.90;64.30
8422;DHT22;4248;48.196;10.924;2023-07-13T01:15:48;19.80;64.30
8422;DHT22;4248;48.196;10.924;2023-07-13T01:18:16;19.80;64.30
8422;DHT22;4248;48.196;10.924;2023-07-13T01:21:02;19.80;64.20
8422;DHT22;4248;48.196;10.924;2023-07-13T01:23:29;19.80;64.10
8422;DHT22;4248;48.196;10.924;2023-07-13T01:25:55;19.80;64.10
8422;DHT22;4248;48.196;10.924;2023-07-13T01:28:22;19.70;64.20
8422;DHT22;4248;48.196;10.924;2023-07-13T01:30:48;19.70;64.30
8422;DHT22;4248;48.196;10.924;2023-07-13T01:33:16;19.70;64.70
8422;DHT22;4248;48.196;10.924;2023-07-13T01:35:42;19.50;65.10
8422;DHT22;4248;48.196;10.924;2023-07-13T01:38:09;19.50;65.20
8422;DHT22;4248;48.196;10.924;2023-07-13T01:40:36;19.50;64.90
8422;DHT22;4248;48.196;10.924;2023-07-13T01:43:02;19.50;64.90
8422;DHT22;4248;48.196;10.924;2023-07-13T01:45:28;19.60;64.80
8422;DHT22;4248;48.196;10.924;2023-07-13T01:47:53;19.70;64.50
8422;DHT22;4248;48.196;10.924;2023-07-13T01:50:19;19.50;65.10
8422;DHT22;4248;48.196;10.924;2023-07-13T01:52:45;19.40;65.80
8422;DHT22;4248;48.196;10.924;2023-07-13T01:55:11;19.30;66.00
8422;DHT22;4248;48.196;10.924;2023-07-13T01:57:36;19.20;65.80
8422;DHT22;4248;48.196;10.924;2023-07-13T02:00:06;19.20;65.60
8422;DHT22;4248;48.196;10.924;2023-07-13T02:02:32;19.10;65.40
8422;DHT22;4248;48.196;10.924;2023-07-13T02:04:58;19.20;66.40
8422;DHT22;4248;48.196;10.924;2023-07-13T02:07:23;18.90;65.50
8422;DHT22;4248;48.196;10.924;2023-07-13T02:09:49;18.90;65.30
8422;DHT22;4248;48.196;10.924;2023-07-13T02:12:14;18.80;65.20
8422;DHT22;4248;48.196;10.924;2023-07-13T02:14:40;18.80;65.20
8422;DHT22;4248;48.196;10.924;2023-07-13T02:17:06;18.70;64.80
8422;DHT22;4248;48.196;10.924;2023-07-13T02:19:32;18.70;64.90
8422;DHT22;4248;48.196;10.924;2023-07-13T02:21:58;18.70;64.80
8422;DHT22;4248;48.196;10.924;2023-07-13T02:24:23;18.70;64.70
8422;DHT22;4248;48.196;10.924;2023-07-13T02:26:49;18.70;64.60
8422;DHT22;4248;48.196;10.924;2023-07-13T02:29:15;18.70;64.50
8422;DHT22;4248;48.196;10.924;2023-07-13T02:31:40;18.70;64.30
8422;DHT22;4248;48.196;10.924;2023-07-13T02:34:06;18.70;64.20
8422;DHT22;4248;48.196;10.924;2023-07-13T02:36:32;18.70;64.10
8422;DHT22;4248;48.196;10.924;2023-07-13T02:39:02;18.70;63.90
8422;DHT22;4248;48.196;10.924;2023-07-13T02:41:28;18.80;63.50
8422;DHT22;4248;48.196;10.924;2023-07-13T02:43:53;18.80;63.50
8422;DHT22;4248;48.196;10.924;2023-07-13T02:46:19;18.80;63.40
8422;DHT22;4248;48.196;10.924;2023-07-13T02:48:45;18.80;63.50
8422;DHT22;4248;48.196;10.924;2023-07-13T02:51:11;18.80;63.30
8422;DHT22;4248;48.196;10.924;2023-07-13T02:53:37;18.80;63.30
8422;DHT22;4248;48.196;10.924;2023-07-13T02:56:04;18.80;63.20
8422;DHT22;4248;48.196;10.924;2023-07-13T02:58:30;18.80;64.50
8422;DHT22;4248;48.196;10.924;2023-07-13T03:00:56;18.80;63.40
8422;DHT22;4248;48.196;10.924;2023-07-13T03:03:21;18.70;63.50
8422;DHT22;4248;48.196;10.924;2023-07-13T03:05:47;18.80;63.90
8422;DHT22;4248;48.196;10.924;2023-07-13T03:08:15;18.70;65.10
8422;DHT22;4248;48.196;10.924;2023-07-13T03:10:41;18.90;64.10
8422;DHT22;4248;48.196;10.924;2023-07-13T03:13:07;18.70;64.00
8422;DHT22;4248;48.196;10.924;2023-07-13T03:15:32;18.70;63.90
8422;DHT22;4248;48.196;10.924;2023-07-13T03:17:58;18.70;63.70
8422;DHT22;4248;48.196;10.924;2023-07-13T03:20:23;18.80;63.70
8422;DHT22;4248;48.196;10.924;2023-07-13T03:22:49;18.80;63.60
8422;DHT22;4248;48.196;10.924;2023-07-13T03:25:15;18.80;63.60
8422;DHT22;4248;48.196;10.924;2023-07-13T03:27:40;18.70;63.70
8422;DHT22;4248;48.196;10.924;2023-07-13T03:30:06;18.90;64.10
8422;DHT22;4248;48.196;10.924;2023-07-13T03:32:32;18.80;63.80
8422;DHT22;4248;48.196;10.924;2023-07-13T03:34:58;18.80;63.80
8422;DHT22;4248;48.196;10.924;2023-07-13T03:37:24;18.90;63.90
8422;DHT22;4248;48.196;10.924;2023-07-13T03:39:50;18.70;63.90
8422;DHT22;4248;48.196;10.924;2023-07-13T03:42:15;18.60;64.00
8422;DHT22;4248;48.196;10.924;2023-07-13T03:44:42;18.60;64.30
8422;DHT22;4248;48.196;10.924;2023-07-13T03:47:07;18.60;64.40
8422;DHT22;4248;48.196;10.924;2023-07-13T03:49:34;18.50;64.40
8422;DHT22;4248;48.196;10.924;2023-07-13T03:52:00;18.50;64.40
8422;DHT22;4248;48.196;10.924;2023-07-13T03:54:26;18.50;64.50
8422;DHT22;4248;48.196;10.924;2023-07-13T03:56:51;18.50;64.50
8422;DHT22;4248;48.196;10.924;2023-07-13T03:59:17;18.60;64.40
8422;DHT22;4248;48.196;10.924;2023-07-13T04:01:44;18.70;62.90
8422;DHT22;4248;48.196;10.924;2023-07-13T04:04:09;18.80;64.10
8422;DHT22;4248;48.196;10.924;2023-07-13T04:06:35;18.70;63.90
8422;DHT22;4248;48.196;10.924;2023-07-13T04:09:02;18.80;63.90
8422;DHT22;4248;48.196;10.924;2023-07-13T04:11:31;18.80;63.80
8422;DHT22;4248;48.196;10.924;2023-07-13T04:13:57;18.80;63.70
8422;DHT22;4248;48.196;10.924;2023-07-13T04:16:23;18.90;64.00
8422;DHT22;4248;48.196;10.924;2023-07-13T04:18:49;18.80;64.00
8422;DHT22;4248;48.196;10.924;2023-07-13T04:21:16;18.80;64.10
8422;DHT22;4248;48.196;10.924;2023-07-13T04:23:42;18.80;64.10
8422;DHT22;4248;48.196;10.924;2023-07-13T04:26:08;18.80;64.10
8422;DHT22;4248;48.196;10.924;2023-07-13T04:28:34;18.80;64.00
8422;DHT22;4248;48.196;10.924;2023-07-13T04:31:00;18.80;64.10
8422;DHT22;4248;48.196;10.924;2023-07-13T04:33:26;18.90;64.00
8422;DHT22;4248;48.196;10.924;2023-07-13T04:35:54;18.90;64.00
8422;DHT22;4248;48.196;10.924;2023-07-13T04:38:28;18.80;63.90
8422;DHT22;4248;48.196;10.924;2023-07-13T04:41:05;18.80;63.90
8422;DHT22;4248;48.196;10.924;2023-07-13T04:43:32;18.90;64.10
8422;DHT22;4248;48.196;10.924;2023-07-13T04:46:03;18.90;63.90
8422;DHT22;4248;48.196;10.924;2023-07-13T04:48:29;18.90;63.90
8422;DHT22;4248;48.196;10.924;2023-07-13T04:50:56;18.80;63.90
8422;DHT22;4248;48.196;10.924;2023-07-13T04:53:22;18.90;64.10
8422;DHT22;4248;48.196;10.924;2023-07-13T04:55:48;18.90;63.80
8422;DHT22;4248;48.196;10.924;2023-07-13T04:58:13;18.90;63.80
8422;DHT22;4248;48.196;10.924;2023-07-13T05:00:39;19.00;63.70
8422;DHT22;4248;48.196;10.924;2023-07-13T05:03:05;19.20;63.70
8422;DHT22;4248;48.196;10.924;2023-07-13T05:05:31;19.20;63.60
8422;DHT22;4248;48.196;10.924;2023-07-13T05:07:56;19.20;63.40
8422;DHT22;4248;48.196;10.924;2023-07-13T05:10:23;19.20;63.20
8422;DHT22;4248;48.196;10.924;2023-07-13T05:12:49;19.30;63.10
8422;DHT22;4248;48.196;10.924;2023-07-13T05:15:15;19.40;63.00
8422;DHT22;4248;48.196;10.924;2023-07-13T05:17:40;19.60;62.90
8422;DHT22;4248;48.196;10.924;2023-07-13T05:20:08;19.60;62.50
8422;DHT22;4248;48.196;10.924;2023-07-13T05:22:34;19.70;62.30
8422;DHT22;4248;48.196;10.924;2023-07-13T05:25:01;19.90;62.20
8422;DHT22;4248;48.196;10.924;2023-07-13T05:27:27;19.80;62.20
8422;DHT22;4248;48.196;10.924;2023-07-13T05:29:52;19.80;62.40
8422;DHT22;4248;48.196;10.924;2023-07-13T05:32:18;19.90;62.20
8422;DHT22;4248;48.196;10.924;2023-07-13T05:34:44;20.00;62.00
8422;DHT22;4248;48.196;10.924;2023-07-13T05:37:09;20.10;61.80
8422;DHT22;4248;48.196;10.924;2023-07-13T05:39:35;20.10;61.50
8422;DHT22;4248;48.196;10.924;2023-07-13T05:42:01;20.20;61.00
8422;DHT22;4248;48.196;10.924;2023-07-13T05:44:27;20.30;61.10
8422;DHT22;4248;48.196;10.924;2023-07-13T05:46:53;20.30;61.10
8422;DHT22;4248;48.196;10.924;2023-07-13T05:49:20;20.30;61.10
8422;DHT22;4248;48.196;10.924;2023-07-13T05:51:45;20.40;61.10
8422;DHT22;4248;48.196;10.924;2023-07-13T05:54:11;20.50;61.20
8422;DHT22;4248;48.196;10.924;2023-07-13T05:56:37;20.50;61.20
8422;DHT22;4248;48.196;10.924;2023-07-13T05:59:02;20.40;61.10
8422;DHT22;4248;48.196;10.924;2023-07-13T06:01:29;20.30;61.10
8422;DHT22;4248;48.196;10.924;2023-07-13T06:03:56;20.30;61.10
8422;DHT22;4248;48.196;10.924;2023-07-13T06:06:21;20.30;61.10
8422;DHT22;4248;48.196;10.924;2023-07-13T06:08:47;20.40;61.10
8422;DHT22;4248;48.196;10.924;2023-07-13T06:11:19;20.40;61.10
8422;DHT22;4248;48.196;10.924;2023-07-13T06:13:45;20.30;61.00
8422;DHT22;4248;48.196;10.924;2023-07-13T06:16:11;20.30;60.80
8422;DHT22;4248;48.196;10.924;2023-07-13T06:18:38;20.30;60.60
8422;DHT22;4248;48.196;10.924;2023-07-13T06:21:09;20.10;60.80
8422;DHT22;4248;48.196;10.924;2023-07-13T06:23:35;20.00;60.80
8422;DHT22;4248;48.196;10.924;2023-07-13T06:26:02;20.00;60.70
8422;DHT22;4248;48.196;10.924;2023-07-13T06:28:28;20.00;60.20
8422;DHT22;4248;48.196;10.924;2023-07-13T06:30:53;19.90;60.00
8422;DHT22;4248;48.196;10.924;2023-07-13T06:33:19;19.90;59.90
8422;DHT22;4248;48.196;10.924;2023-07-13T06:35:45;19.70;59.80
8422;DHT22;4248;48.196;10.924;2023-07-13T06:38:10;19.70;59.60
8422;DHT22;4248;48.196;10.924;2023-07-13T06:40:36;19.40;59.50
8422;DHT22;4248;48.196;10.924;2023-07-13T06:43:01;19.40;59.80
8422;DHT22;4248;48.196;10.924;2023-07-13T06:45:27;19.30;60.10
8422;DHT22;4248;48.196;10.924;2023-07-13T06:47:52;19.20;59.80
8422;DHT22;4248;48.196;10.924;2023-07-13T06:50:18;19.10;60.50
8422;DHT22;4248;48.196;10.924;2023-07-13T06:52:43;19.00;58.80
8422;DHT22;4248;48.196;10.924;2023-07-13T06:55:09;19.10;58.30
8422;DHT22;4248;48.196;10.924;2023-07-13T06:57:34;19.20;57.40
8422;DHT22;4248;48.196;10.924;2023-07-13T07:00:00;19.20;56.70
8422;DHT22;4248;48.196;10.924;2023-07-13T07:02:26;19.20;56.10
8422;DHT22;4248;48.196;10.924;2023-07-13T07:04:51;19.30;55.00
8422;DHT22;4248;48.196;10.924;2023-07-13T07:07:17;19.40;54.30
8422;DHT22;4248;48.196;10.924;2023-07-13T07:09:42;19.60;53.60
8422;DHT22;4248;48.196;10.924;2023-07-13T07:12:08;19.60;53.40
8422;DHT22;4248;48.196;10.924;2023-07-13T07:14:33;19.50;53.30
8422;DHT22;4248;48.196;10.924;2023-07-13T07:17:00;19.50;53.10
8422;DHT22;4248;48.196;10.924;2023-07-13T07:19:26;19.50;52.70
8422;DHT22;4248;48.196;10.924;2023-07-13T07:21:51;19.70;52.50
8422;DHT22;4248;48.196;10.924;2023-07-13T07:24:17;20.00;51.60
8422;DHT22;4248;48.196;10.924;2023-07-13T07:26:42;20.20;50.80
8422;DHT22;4248;48.196;10.924;2023-07-13T07:29:08;20.40;49.90
8422;DHT22;4248;48.196;10.924;2023-07-13T07:31:33;20.70;48.60
8422;DHT22;4248;48.196;10.924;2023-07-13T07:33:59;21.10;48.70
8422;DHT22;4248;48.196;10.924;2023-07-13T07:36:25;21.90;46.90
8422;DHT22;4248;48.196;10.924;2023-07-13T07:38:50;22.10;45.10
8422;DHT22;4248;48.196;10.924;2023-07-13T07:41:16;22.40;43.70
8422;DHT22;4248;48.196;10.924;2023-07-13T07:43:42;22.80;42.50
8422;DHT22;4248;48.196;10.924;2023-07-13T07:46:07;23.20;41.00
8422;DHT22;4248;48.196;10.924;2023-07-13T07:48:33;23.50;38.90
8422;DHT22;4248;48.196;10.924;2023-07-13T07:50:58;23.70;37.40
8422;DHT22;4248;48.196;10.924;2023-07-13T07:53:24;23.80;37.50
8422;DHT22;4248;48.196;10.924;2023-07-13T07:55:49;23.70;36.80
8422;DHT22;4248;48.196;10.924;2023-07-13T07:58:15;23.60;36.20
8422;DHT22;4248;48.196;10.924;2023-07-13T08:00:41;23.40;35.80
8422;DHT22;4248;48.196;10.924;2023-07-13T08:03:06;23.20;36.00
8422;DHT22;4248;48.196;10.924;2023-07-13T08:05:35;23.20;36.40
8422;DHT22;4248;48.196;10.924;2023-07-13T08:08:01;23.10;36.10
8422;DHT22;4248;48.196;10.924;2023-07-13T08:10:27;23.00;36.00
8422;DHT22;4248;48.196;10.924;2023-07-13T08:12:52;23.10;35.60
8422;DHT22;4248;48.196;10.924;2023-07-13T08:15:18;23.00;35.40
8422;DHT22;4248;48.196;10.924;2023-07-13T08:17:46;22.90;35.10
8422;DHT22;4248;48.196;10.924;2023-07-13T08:20:12;22.90;35.10
8422;DHT22;4248;48.196;10.924;2023-07-13T08:22:38;22.90;35.00
8422;DHT22;4248;48.196;10.924;2023-07-13T08:25:03;22.90;34.60
8422;DHT22;4248;48.196;10.924;2023-07-13T08:27:29;22.90;34.50
8422;DHT22;4248;48.196;10.924;2023-07-13T08:29:55;22.80;34.10
8422;DHT22;4248;48.196;10.924;2023-07-13T08:32:21;23.00;33.70
8422;DHT22;4248;48.196;10.924;2023-07-13T08:34:48;23.00;32.70
8422;DHT22;4248;48.196;10.924;2023-07-13T08:37:14;23.20;32.40
8422;DHT22;4248;48.196;10.924;2023-07-13T08:39:40;23.30;31.80
8422;DHT22;4248;48.196;10.924;2023-07-13T08:47:23;23.80;29.70
8422;DHT22;4248;48.196;10.924;2023-07-13T08:49:50;23.90;29.40
8422;DHT22;4248;48.196;10.924;2023-07-13T08:52:31;24.00;29.10
8422;DHT22;4248;48.196;10.924;2023-07-13T08:55:05;24.20;28.60
8422;DHT22;4248;48.196;10.924;2023-07-13T08:57:33;24.30;28.40
8422;DHT22;4248;48.196;10.924;2023-07-13T08:59:59;24.40;27.90
8422;DHT22;4248;48.196;10.924;2023-07-13T09:18:36;24.00;26.20
8422;DHT22;4248;48.196;10.924;2023-07-13T09:23:35;23.90;26.50
8422;DHT22;4248;48.196;10.924;2023-07-13T09:26:10;24.00;26.30
8422;DHT22;4248;48.196;10.924;2023-07-13T09:28:44;24.40;25.50
8422;DHT22;4248;48.196;10.924;2023-07-13T09:31:32;24.80;25.30
8422;DHT22;4248;48.196;10.924;2023-07-13T09:33:59;25.10;24.50
8422;DHT22;4248;48.196;10.924;2023-07-13T09:36:28;25.30;24.30
8422;DHT22;4248;48.196;10.924;2023-07-13T09:44:34;25.60;22.90
8422;DHT22;4248;48.196;10.924;2023-07-13T09:46:59;25.70;22.90
8422;DHT22;4248;48.196;10.924;2023-07-13T09:49:25;26.10;22.70
8422;DHT22;4248;48.196;10.924;2023-07-13T09:52:09;26.30;21.80
8422;DHT22;4248;48.196;10.924;2023-07-13T09:54:36;26.20;20.90
8422;DHT22;4248;48.196;10.924;2023-07-13T09:57:11;26.20;20.80
8422;DHT22;4248;48.196;10.924;2023-07-13T09:59:42;26.20;19.90
8422;DHT22;4248;48.196;10.924;2023-07-13T10:05:07;26.20;18.90
8422;DHT22;4248;48.196;10.924;2023-07-13T10:07:40;26.40;18.30
8422;DHT22;4248;48.196;10.924;2023-07-13T10:10:15;26.20;17.30
8422;DHT22;4248;48.196;10.924;2023-07-13T10:12:41;26.20;16.10
8422;DHT22;4248;48.196;10.924;2023-07-13T10:15:12;26.30;15.60
8422;DHT22;4248;48.196;10.924;2023-07-13T10:17:39;26.10;14.70
8422;DHT22;4248;48.196;10.924;2023-07-13T10:20:06;26.20;14.70
8422;DHT22;4248;48.196;10.924;2023-07-13T10:25:22;26.20;13.90
8422;DHT22;4248;48.196;10.924;2023-07-13T10:27:54;26.10;13.70
8422;DHT22;4248;48.196;10.924;2023-07-13T10:30:27;25.80;14.00
8422;DHT22;4248;48.196;10.924;2023-07-13T10:32:58;25.60;14.00
8422;DHT22;4248;48.196;10.924;2023-07-13T10:35:26;25.50;13.60
8422;DHT22;4248;48.196;10.924;2023-07-13T10:38:04;25.40;13.80
8422;DHT22;4248;48.196;10.924;2023-07-13T10:43:09;24.60;12.40
8422;DHT22;4248;48.196;10.924;2023-07-13T10:45:39;24.60;12.40
8422;DHT22;4248;48.196;10.924;2023-07-13T10:48:07;24.50;11.90
8422;DHT22;4248;48.196;10.924;2023-07-13T10:50:44;24.40;9.10
8422;DHT22;4248;48.196;10.924;2023-07-13T10:53:28;24.30;9.30
8422;DHT22;4248;48.196;10.924;2023-07-13T10:55:58;24.60;9.10
8422;DHT22;4248;48.196;10.924;2023-07-13T10:58:36;25.10;9.20
8422;DHT22;4248;48.196;10.924;2023-07-13T11:01:16;25.60;8.90
8422;DHT22;4248;48.196;10.924;2023-07-13T11:03:56;25.60;8.70
8422;DHT22;4248;48.196;10.924;2023-07-13T11:06:30;25.60;8.30
8422;DHT22;4248;48.196;10.924;2023-07-13T11:09:28;25.50;7.30
8422;DHT22;4248;48.196;10.924;2023-07-13T11:11:58;25.40;8.10
8422;DHT22;4248;48.196;10.924;2023-07-13T11:19:53;26.00;7.50
8422;DHT22;4248;48.196;10.924;2023-07-13T11:22:24;25.70;7.10
8422;DHT22;4248;48.196;10.924;2023-07-13T11:24:56;25.60;7.00
8422;DHT22;4248;48.196;10.924;2023-07-13T11:27:41;26.00;6.20
8422;DHT22;4248;48.196;10.924;2023-07-13T11:33:22;26.00;7.30
8422;DHT22;4248;48.196;10.924;2023-07-13T11:38:20;25.80;7.50
8422;DHT22;4248;48.196;10.924;2023-07-13T11:40:47;25.50;7.50
8422;DHT22;4248;48.196;10.924;2023-07-13T11:43:17;25.20;7.50
8422;DHT22;4248;48.196;10.924;2023-07-13T11:45:44;25.00;7.70
8422;DHT22;4248;48.196;10.924;2023-07-13T11:48:29;24.80;7.80
8422;DHT22;4248;48.196;10.924;2023-07-13T11:51:00;25.00;8.40
8422;DHT22;4248;48.196;10.924;2023-07-13T11:53:30;25.30;8.10
8422;DHT22;4248;48.196;10.924;2023-07-13T11:55:58;25.30;8.60
8422;DHT22;4248;48.196;10.924;2023-07-13T11:58:25;25.20;9.00
8422;DHT22;4248;48.196;10.924;2023-07-13T12:00:51;25.50;9.10
8422;DHT22;4248;48.196;10.924;2023-07-13T12:03:21;25.90;8.70
8422;DHT22;4248;48.196;10.924;2023-07-13T12:06:27;26.10;9.00
8422;DHT22;4248;48.196;10.924;2023-07-13T12:08:56;26.20;7.30
8422;DHT22;4248;48.196;10.924;2023-07-13T12:11:22;26.20;7.70
8422;DHT22;4248;48.196;10.924;2023-07-13T12:13:48;26.20;7.70
8422;DHT22;4248;48.196;10.924;2023-07-13T12:16:30;26.40;7.20
8422;DHT22;4248;48.196;10.924;2023-07-13T12:18:59;26.70;6.40
8422;DHT22;4248;48.196;10.924;2023-07-13T12:21:33;26.60;6.30
8422;DHT22;4248;48.196;10.924;2023-07-13T12:23:59;26.60;6.30
8422;DHT22;4248;48.196;10.924;2023-07-13T12:26:28;26.70;6.50
8422;DHT22;4248;48.196;10.924;2023-07-13T12:28:55;26.60;6.50
8422;DHT22;4248;48.196;10.924;2023-07-13T12:34:06;26.40;6.80
8422;DHT22;4248;48.196;10.924;2023-07-13T12:36:35;26.30;7.00
8422;DHT22;4248;48.196;10.924;2023-07-13T12:39:10;26.20;7.20
8422;DHT22;4248;48.196;10.924;2023-07-13T12:41:38;26.10;7.10
8422;DHT22;4248;48.196;10.924;2023-07-13T12:44:08;26.30;7.20
8422;DHT22;4248;48.196;10.924;2023-07-13T12:46:34;26.30;7.10
8422;DHT22;4248;48.196;10.924;2023-07-13T12:49:00;26.10;6.90
8422;DHT22;4248;48.196;10.924;2023-07-13T12:51:27;26.00;6.40
8422;DHT22;4248;48.196;10.924;2023-07-13T12:54:05;26.10;6.20
8422;DHT22;4248;48.196;10.924;2023-07-13T12:56:33;26.10;5.80
8422;DHT22;4248;48.196;10.924;2023-07-13T12:59:01;26.50;5.20
8422;DHT22;4248;48.196;10.924;2023-07-13T13:01:29;26.60;4.40
8422;DHT22;4248;48.196;10.924;2023-07-13T13:03:55;26.90;4.50
8422;DHT22;4248;48.196;10.924;2023-07-13T13:06:25;27.30;4.70
8422;DHT22;4248;48.196;10.924;2023-07-13T13:08:54;26.70;4.40
8422;DHT22;4248;48.196;10.924;2023-07-13T13:11:21;26.20;5.10
8422;DHT22;4248;48.196;10.924;2023-07-13T13:13:49;26.20;4.90
8422;DHT22;4248;48.196;10.924;2023-07-13T13:18:49;26.30;5.20
8422;DHT22;4248;48.196;10.924;2023-07-13T13:21:16;26.50;5.10
8422;DHT22;4248;48.196;10.924;2023-07-13T13:23:41;26.50;5.40
8422;DHT22;4248;48.196;10.924;2023-07-13T13:26:14;26.40;5.10
8422;DHT22;4248;48.196;10.924;2023-07-13T13:28:41;26.40;5.50
8422;DHT22;4248;48.196;10.924;2023-07-13T13:31:08;26.40;5.80
8422;DHT22;4248;48.196;10.924;2023-07-13T13:33:38;26.30;5.70
8422;DHT22;4248;48.196;10.924;2023-07-13T13:36:13;26.00;4.80
8422;DHT22;4248;48.196;10.924;2023-07-13T13:38:39;26.00;5.50
8422;DHT22;4248;48.196;10.924;2023-07-13T13:41:05;25.90;5.70
8422;DHT22;4248;48.196;10.924;2023-07-13T13:43:32;25.80;5.90
8422;DHT22;4248;48.196;10.924;2023-07-13T13:45:58;25.70;6.10
8422;DHT22;4248;48.196;10.924;2023-07-13T13:48:33;25.90;6.30
8422;DHT22;4248;48.196;10.924;2023-07-13T13:51:00;25.90;5.90
8422;DHT22;4248;48.196;10.924;2023-07-13T13:53:26;26.00;6.20
8422;DHT22;4248;48.196;10.924;2023-07-13T13:55:52;26.10;6.30
8422;DHT22;4248;48.196;10.924;2023-07-13T13:58:18;26.10;5.90
8422;DHT22;4248;48.196;10.924;2023-07-13T14:00:44;26.10;5.80
8422;DHT22;4248;48.196;10.924;2023-07-13T14:03:20;26.10;6.40
8422;DHT22;4248;48.196;10.924;2023-07-13T14:05:48;26.10;7.20
8422;DHT22;4248;48.196;10.924;2023-07-13T14:08:19;26.10;6.40
8422;DHT22;4248;48.196;10.924;2023-07-13T14:10:46;26.10;6.20
8422;DHT22;4248;48.196;10.924;2023-07-13T14:13:18;26.00;6.30
8422;DHT22;4248;48.196;10.924;2023-07-13T14:15:45;25.90;6.10
8422;DHT22;4248;48.196;10.924;2023-07-13T14:18:11;26.00;6.20
8422;DHT22;4248;48.196;10.924;2023-07-13T14:20:37;26.10;6.00
8422;DHT22;4248;48.196;10.924;2023-07-13T14:23:03;26.00;6.10
8422;DHT22;4248;48.196;10.924;2023-07-13T14:25:28;25.80;6.50
8422;DHT22;4248;48.196;10.924;2023-07-13T14:27:57;25.60;6.90
8422;DHT22;4248;48.196;10.924;2023-07-13T14:30:25;25.60;7.10
8422;DHT22;4248;48.196;10.924;2023-07-13T14:32:50;25.60;7.10
8422;DHT22;4248;48.196;10.924;2023-07-13T14:35:18;25.80;6.90
8422;DHT22;4248;48.196;10.924;2023-07-13T14:37:46;25.70;6.80
8422;DHT22;4248;48.196;10.924;2023-07-13T14:40:24;25.70;6.90
8422;DHT22;4248;48.196;10.924;2023-07-13T14:42:50;25.90;6.70
8422;DHT22;4248;48.196;10.924;2023-07-13T14:45:18;26.20;7.10
8422;DHT22;4248;48.196;10.924;2023-07-13T14:47:44;26.20;6.30
8422;DHT22;4248;48.196;10.924;2023-07-13T14:50:23;26.00;6.30
8422;DHT22;4248;48.196;10.924;2023-07-13T14:52:50;26.00;6.60
8422;DHT22;4248;48.196;10.924;2023-07-13T14:55:18;26.10;6.60
8422;DHT22;4248;48.196;10.924;2023-07-13T14:57:45;26.30;6.20
8422;DHT22;4248;48.196;10.924;2023-07-13T15:00:15;26.40;5.80
8422;DHT22;4248;48.196;10.924;2023-07-13T15:02:44;26.50;5.30
8422;DHT22;4248;48.196;10.924;2023-07-13T15:05:18;26.60;5.20
8422;DHT22;4248;48.196;10.924;2023-07-13T15:07:45;26.40;5.30
8422;DHT22;4248;48.196;10.924;2023-07-13T15:10:20;26.20;5.50
8422;DHT22;4248;48.196;10.924;2023-07-13T15:12:47;26.30;5.30
8422;DHT22;4248;48.196;10.924;2023-07-13T15:15:13;26.20;5.40
8422;DHT22;4248;48.196;10.924;2023-07-13T15:17:44;26.20;6.00
8422;DHT22;4248;48.196;10.924;2023-07-13T15:22:45;26.00;6.10
8422;DHT22;4248;48.196;10.924;2023-07-13T15:25:23;25.70;6.30
8422;DHT22;4248;48.196;10.924;2023-07-13T15:27:51;25.50;6.50
8422;DHT22;4248;48.196;10.924;2023-07-13T15:30:17;25.50;6.60
8422;DHT22;4248;48.196;10.924;2023-07-13T15:32:43;25.70;6.70
8422;DHT22;4248;48.196;10.924;2023-07-13T15:35:29;25.80;6.70
8422;DHT22;4248;48.196;10.924;2023-07-13T15:37:55;25.90;6.30
8422;DHT22;4248;48.196;10.924;2023-07-13T15:40:20;25.90;6.30
8422;DHT22;4248;48.196;10.924;2023-07-13T15:42:49;25.60;6.10
8422;DHT22;4248;48.196;10.924;2023-07-13T15:45:19;25.50;6.80
8422;DHT22;4248;48.196;10.924;2023-07-13T15:47:46;25.40;6.80
8422;DHT22;4248;48.196;10.924;2023-07-13T15:50:14;25.60;6.70
8422;DHT22;4248;48.196;10.924;2023-07-13T15:52:41;25.90;6.30
8422;DHT22;4248;48.196;10.924;2023-07-13T15:55:11;26.20;5.90
8422;DHT22;4248;48.196;10.924;2023-07-13T15:57:37;26.10;4.60
8422;DHT22;4248;48.196;10.924;2023-07-13T16:02:31;25.30;5.50
8422;DHT22;4248;48.196;10.924;2023-07-13T16:04:56;25.40;6.60
8422;DHT22;4248;48.196;10.924;2023-07-13T16:07:22;25.80;5.10
8422;DHT22;4248;48.196;10.924;2023-07-13T16:09:48;25.80;5.90
8422;DHT22;4248;48.196;10.924;2023-07-13T16:12:15;26.20;5.60
8422;DHT22;4248;48.196;10.924;2023-07-13T16:14:41;26.00;5.30
8422;DHT22;4248;48.196;10.924;2023-07-13T16:17:11;26.00;5.80
8422;DHT22;4248;48.196;10.924;2023-07-13T16:19:37;25.70;6.00
8422;DHT22;4248;48.196;10.924;2023-07-13T16:22:04;25.50;6.40
8422;DHT22;4248;48.196;10.924;2023-07-13T16:24:31;25.30;6.80
8422;DHT22;4248;48.196;10.924;2023-07-13T16:26:56;25.20;7.00
8422;DHT22;4248;48.196;10.924;2023-07-13T16:29:25;25.10;7.00
8422;DHT22;4248;48.196;10.924;2023-07-13T16:32:18;25.10;7.30
8422;DHT22;4248;48.196;10.924;2023-07-13T16:34:44;25.50;7.40
8422;DHT22;4248;48.196;10.924;2023-07-13T16:39:47;25.90;6.50
8422;DHT22;4248;48.196;10.924;2023-07-13T16:42:12;26.00;6.40
8422;DHT22;4248;48.196;10.924;2023-07-13T16:44:38;25.90;6.40
8422;DHT22;4248;48.196;10.924;2023-07-13T16:47:14;25.70;6.70
8422;DHT22;4248;48.196;10.924;2023-07-13T16:49:40;25.70;6.60
8422;DHT22;4248;48.196;10.924;2023-07-13T16:52:06;25.80;6.60
8422;DHT22;4248;48.196;10.924;2023-07-13T16:54:36;26.00;6.30
8422;DHT22;4248;48.196;10.924;2023-07-13T16:57:11;25.90;6.30
8422;DHT22;4248;48.196;10.924;2023-07-13T16:59:37;25.80;6.40
8422;DHT22;4248;48.196;10.924;2023-07-13T17:04:47;25.30;6.80